Time;durP1;ratioP1;P1;durP2;ratioP2;P2;SDS_P1;SDS_P2;PMS_P1;PMS_P2;Temp;Humidity;BMP_temperature;BMP_pressure;BME280_temperature;BME280_humidity;BME280_pressure;Samples;Min_cycle;Max_cycle;Signal;HPM_P1;HPM_P2
2022/03/19 00:00:51;;;;;;;72.00;56.03;;;7.10;93.20;;;;;;5099965;28;20496;-44
2022/03/19 00:03:18;;;;;;;70.77;54.83;;;7.10;93.20;;;;;;5097932;28;20176;-44
2022/03/19 00:05:44;;;;;;;73.67;56.00;;;7.10;93.20;;;;;;5100398;28;20419;-45
2022/03/19 00:08:11;;;;;;;69.80;54.60;;;7.10;93.20;;;;;;5099262;28;20956;-45
2022/03/19 00:10:36;;;;;;;76.03;57.43;;;7.00;93.20;;;;;;5100042;28;20936;-45
2022/03/19 00:13:02;;;;;;;73.80;54.80;;;7.00;93.30;;;;;;5098523;28;20518;-45
2022/03/19 00:15:28;;;;;;;73.13;58.90;;;7.00;93.30;;;;;;5097240;28;20184;-42
2022/03/19 00:17:54;;;;;;;68.73;53.03;;;7.00;93.40;;;;;;5096097;28;20189;-45
2022/03/19 00:20:21;;;;;;;73.27;57.97;;;7.00;93.40;;;;;;5096004;28;20415;-43
2022/03/19 00:22:47;;;;;;;72.90;56.63;;;6.90;93.30;;;;;;5096808;28;20195;-45
2022/03/19 00:25:12;;;;;;;73.00;54.57;;;6.90;93.40;;;;;;5096597;28;20919;-44
2022/03/19 00:27:40;;;;;;;77.10;57.83;;;6.90;93.50;;;;;;5097978;28;20506;-44
2022/03/19 00:30:07;;;;;;;73.80;56.10;;;6.90;93.50;;;;;;5099014;28;20187;-44
2022/03/19 00:32:32;;;;;;;73.70;56.43;;;6.90;93.50;;;;;;5097948;28;20420;-41
2022/03/19 00:34:58;;;;;;;70.20;55.30;;;6.80;93.50;;;;;;5098180;28;20573;-44
2022/03/19 00:37:23;;;;;;;68.77;55.43;;;6.80;93.40;;;;;;5098593;28;20195;-44
2022/03/19 00:39:49;;;;;;;69.77;53.70;;;6.80;93.40;;;;;;5096544;28;20196;-44
2022/03/19 00:42:15;;;;;;;71.40;55.33;;;6.80;93.40;;;;;;5097566;28;20181;-44
2022/03/19 00:44:42;;;;;;;72.87;57.83;;;6.80;93.50;;;;;;5096443;28;20191;-44
2022/03/19 00:47:07;;;;;;;73.83;58.60;;;6.70;93.50;;;;;;5097191;28;20228;-44
2022/03/19 00:49:33;;;;;;;73.47;57.33;;;6.70;93.60;;;;;;5096073;28;20437;-44
2022/03/19 00:51:59;;;;;;;66.80;54.97;;;6.70;93.70;;;;;;5096774;28;20447;-50
2022/03/19 00:54:24;;;;;;;74.57;57.80;;;6.70;93.70;;;;;;5097299;28;20173;-44
2022/03/19 00:56:50;;;;;;;74.70;55.60;;;6.70;93.80;;;;;;5097143;28;20192;-44
2022/03/19 00:59:16;;;;;;;69.10;56.00;;;6.70;93.80;;;;;;5098942;28;20429;-44
2022/03/19 01:01:41;;;;;;;69.53;54.77;;;6.70;93.80;;;;;;5098649;28;20176;-45
2022/03/19 01:04:07;;;;;;;69.20;55.57;;;6.60;93.70;;;;;;5098429;28;20233;-44
2022/03/19 01:06:32;;;;;;;71.00;55.60;;;6.60;93.70;;;;;;5098546;28;20212;-44
2022/03/19 01:08:58;;;;;;;73.97;57.73;;;6.60;93.70;;;;;;5098381;28;20187;-44
2022/03/19 01:11:24;;;;;;;64.97;53.47;;;6.60;93.80;;;;;;5098138;28;20195;-43
2022/03/19 01:13:50;;;;;;;67.60;52.80;;;6.60;93.80;;;;;;5099206;28;20254;-43
2022/03/19 01:16:18;;;;;;;72.10;52.93;;;6.60;93.90;;;;;;5097926;28;20177;-44
2022/03/19 01:18:45;;;;;;;70.80;54.30;;;6.50;93.80;;;;;;5098985;28;20763;-44
2022/03/19 01:21:10;;;;;;;72.40;53.70;;;6.50;93.90;;;;;;5096148;28;20435;-44
2022/03/19 01:23:36;;;;;;;71.47;54.67;;;6.50;93.90;;;;;;5098391;28;20441;-44
2022/03/19 01:26:02;;;;;;;72.33;54.00;;;6.50;93.80;;;;;;5096912;28;20268;-43
2022/03/19 01:28:27;;;;;;;62.57;49.73;;;6.50;93.80;;;;;;5098595;28;20177;-44
2022/03/19 01:30:53;;;;;;;73.10;54.80;;;6.40;93.70;;;;;;5098291;28;20201;-43
2022/03/19 01:33:19;;;;;;;65.17;52.53;;;6.40;93.70;;;;;;5096507;28;20172;-44
2022/03/19 01:35:45;;;;;;;65.60;52.97;;;6.40;93.70;;;;;;5096616;28;20475;-44
2022/03/19 01:38:10;;;;;;;67.23;54.47;;;6.40;93.70;;;;;;5094715;28;20181;-42
2022/03/19 01:40:36;;;;;;;67.50;52.67;;;6.40;93.70;;;;;;5096239;28;20180;-45
2022/03/19 01:43:02;;;;;;;65.43;48.83;;;6.40;93.60;;;;;;5095719;28;20188;-43
2022/03/19 01:45:28;;;;;;;60.23;49.47;;;6.40;93.60;;;;;;5096370;28;20177;-44
2022/03/19 01:47:54;;;;;;;62.47;49.80;;;6.40;93.60;;;;;;5095389;28;20884;-44
2022/03/19 01:50:22;;;;;;;59.17;50.77;;;6.40;93.40;;;;;;5098219;28;20501;-41
2022/03/19 01:52:48;;;;;;;63.30;50.30;;;6.40;93.30;;;;;;5096789;28;20415;-44
2022/03/19 01:55:16;;;;;;;62.47;51.60;;;6.30;93.20;;;;;;5098284;28;20518;-42
2022/03/19 01:57:43;;;;;;;67.73;51.90;;;6.30;93.30;;;;;;5097122;28;20407;-44
2022/03/19 02:00:12;;;;;;;68.23;50.57;;;6.30;93.30;;;;;;5097465;28;20426;-43
2022/03/19 02:02:39;;;;;;;65.90;50.50;;;6.30;93.30;;;;;;5098483;28;20503;-44
2022/03/19 02:05:05;;;;;;;62.53;49.20;;;6.20;93.20;;;;;;5096745;28;20422;-44
2022/03/19 02:07:31;;;;;;;64.20;50.30;;;6.20;93.30;;;;;;5098300;28;20557;-44
2022/03/19 02:09:58;;;;;;;65.17;48.93;;;6.20;93.20;;;;;;5113348;28;20839;-44
2022/03/19 02:12:24;;;;;;;64.50;51.80;;;6.20;93.20;;;;;;5118393;28;20412;-44
2022/03/19 02:14:50;;;;;;;60.30;49.40;;;6.20;93.20;;;;;;5118329;28;20520;-44
2022/03/19 02:17:16;;;;;;;60.20;48.97;;;6.10;93.20;;;;;;5117282;28;20574;-43
2022/03/19 02:19:50;;;;;;;61.60;48.97;;;6.10;93.20;;;;;;5117142;28;20436;-47
2022/03/19 02:22:18;;;;;;;58.40;47.97;;;6.10;93.20;;;;;;5117061;28;20447;-43
2022/03/19 02:27:29;;;;;;;59.23;46.20;;;6.10;93.10;;;;;;5116360;28;20468;-44
2022/03/19 02:29:56;;;;;;;67.53;52.43;;;6.00;93.00;;;;;;5118761;28;20410;-41
2022/03/19 02:32:23;;;;;;;63.43;50.30;;;6.00;93.00;;;;;;5115472;28;20426;-43
2022/03/19 02:34:49;;;;;;;58.63;46.00;;;6.00;93.00;;;;;;5117530;28;20426;-44
2022/03/19 02:37:14;;;;;;;64.70;49.27;;;6.00;93.00;;;;;;5117675;28;20422;-44
2022/03/19 02:39:40;;;;;;;61.63;49.60;;;6.00;93.00;;;;;;5116289;28;20180;-44
2022/03/19 02:42:07;;;;;;;57.90;45.63;;;6.00;93.00;;;;;;5118052;28;20498;-44
2022/03/19 02:44:33;;;;;;;56.87;47.27;;;6.00;93.00;;;;;;5116917;28;20760;-42
2022/03/19 02:47:06;;;;;;;67.20;50.57;;;5.90;92.90;;;;;;5116754;28;20472;-44
2022/03/19 02:49:31;;;;;;;59.57;48.40;;;5.90;93.00;;;;;;5117720;28;20429;-41
2022/03/19 02:51:57;;;;;;;60.97;47.10;;;5.90;93.00;;;;;;5118052;28;20411;-44
2022/03/19 02:54:28;;;;;;;58.47;47.00;;;5.90;93.00;;;;;;5116878;28;20181;-44
2022/03/19 02:56:55;;;;;;;58.17;47.17;;;5.90;92.90;;;;;;5118194;28;20195;-44
2022/03/19 02:59:24;;;;;;;60.57;45.80;;;5.90;92.90;;;;;;5118238;28;20429;-44
2022/03/19 03:01:55;;;;;;;61.43;47.53;;;5.80;92.80;;;;;;5116328;28;20502;-41
2022/03/19 03:04:21;;;;;;;58.10;46.57;;;5.80;92.80;;;;;;5118121;28;20402;-41
2022/03/19 03:06:52;;;;;;;59.30;48.97;;;5.80;92.90;;;;;;5116919;28;20506;-42
2022/03/19 03:09:23;;;;;;;61.90;48.27;;;5.80;92.80;;;;;;5118036;28;20414;-40
2022/03/19 03:11:49;;;;;;;57.00;47.10;;;5.80;92.80;;;;;;5116547;28;20458;-42
2022/03/19 03:14:15;;;;;;;63.73;47.77;;;5.70;92.80;;;;;;5117601;28;20892;-42
2022/03/19 03:16:41;;;;;;;54.67;45.67;;;5.70;92.80;;;;;;5116293;28;20470;-42
2022/03/19 03:19:10;;;;;;;56.63;46.70;;;5.70;92.80;;;;;;5117685;28;20420;-42
2022/03/19 03:21:36;;;;;;;57.00;45.60;;;5.70;92.80;;;;;;5115689;28;20445;-43
2022/03/19 03:24:03;;;;;;;58.33;45.97;;;5.70;92.80;;;;;;5117726;28;20449;-42
2022/03/19 03:26:30;;;;;;;62.93;47.87;;;5.70;92.80;;;;;;5116789;28;20445;-42
2022/03/19 03:28:56;;;;;;;57.17;46.30;;;5.70;92.80;;;;;;5117670;28;20406;-42
2022/03/19 03:31:22;;;;;;;55.20;45.37;;;5.70;92.80;;;;;;5116344;28;20549;-41
2022/03/19 03:33:48;;;;;;;62.60;46.17;;;5.70;92.80;;;;;;5120201;28;20430;-42
2022/03/19 03:36:14;;;;;;;54.97;45.43;;;5.60;92.70;;;;;;5119773;28;20477;-42
2022/03/19 03:38:40;;;;;;;57.53;45.83;;;5.60;92.70;;;;;;5121659;28;20509;-42
2022/03/19 03:41:05;;;;;;;58.30;48.03;;;5.60;92.70;;;;;;5120424;28;20255;-41
2022/03/19 03:43:31;;;;;;;57.17;45.57;;;5.60;92.60;;;;;;5120264;28;20237;-42
2022/03/19 03:45:57;;;;;;;52.97;42.70;;;5.60;92.60;;;;;;5120236;28;20249;-42
2022/03/19 03:48:22;;;;;;;58.13;44.73;;;5.60;92.50;;;;;;5121068;28;20188;-41
2022/03/19 03:50:52;;;;;;;54.20;43.87;;;5.60;92.50;;;;;;5119301;28;20657;-43
2022/03/19 03:53:18;;;;;;;57.73;45.50;;;5.50;92.50;;;;;;5121153;28;20184;-43
2022/03/19 03:55:44;;;;;;;58.17;46.17;;;5.50;92.50;;;;;;5119453;28;20757;-43
2022/03/19 03:58:11;;;;;;;53.80;44.93;;;5.50;92.50;;;;;;5119986;28;20691;-43
2022/03/19 04:00:37;;;;;;;57.97;44.80;;;5.50;92.40;;;;;;5119008;28;20498;-43
2022/03/19 04:03:04;;;;;;;51.87;44.57;;;5.50;92.40;;;;;;5120970;28;20426;-43
2022/03/19 04:05:30;;;;;;;55.57;45.80;;;5.50;92.40;;;;;;5119384;28;20839;-42
2022/03/19 04:07:56;;;;;;;57.10;43.70;;;5.50;92.40;;;;;;5120887;27;20410;-43
2022/03/19 04:10:21;;;;;;;50.17;42.20;;;5.40;92.30;;;;;;5119711;28;20448;-43
2022/03/19 04:12:47;;;;;;;53.53;43.50;;;5.40;92.30;;;;;;5119620;28;20430;-43
2022/03/19 04:15:13;;;;;;;54.97;44.30;;;5.40;92.30;;;;;;5119981;28;20195;-43
2022/03/19 04:17:40;;;;;;;53.20;42.30;;;5.40;92.30;;;;;;5118769;28;20208;-41
2022/03/19 04:20:07;;;;;;;53.47;44.97;;;5.40;92.30;;;;;;5120292;28;20292;-43
2022/03/19 04:22:37;;;;;;;53.87;45.80;;;5.40;92.30;;;;;;5119606;27;20414;-43
2022/03/19 04:25:05;;;;;;;56.23;44.97;;;5.30;92.20;;;;;;5120253;28;20766;-43
2022/03/19 04:27:30;;;;;;;57.07;45.00;;;5.30;92.30;;;;;;5118024;28;20429;-43
2022/03/19 04:29:56;;;;;;;52.23;45.27;;;5.30;92.20;;;;;;5120637;28;20422;-43
2022/03/19 04:32:22;;;;;;;51.70;44.67;;;5.30;92.10;;;;;;5118669;28;20177;-42
2022/03/19 04:34:48;;;;;;;59.03;44.67;;;5.30;92.10;;;;;;5120090;28;20195;-43
2022/03/19 04:37:14;;;;;;;54.63;44.87;;;5.30;92.10;;;;;;5117775;28;20975;-43
2022/03/19 04:39:39;;;;;;;52.57;42.40;;;5.30;92.10;;;;;;5120543;28;20172;-43
2022/03/19 04:42:06;;;;;;;51.60;43.10;;;5.20;92.10;;;;;;5119724;28;20225;-42
2022/03/19 04:44:32;;;;;;;52.60;42.23;;;5.20;92.10;;;;;;5120020;28;20233;-42
2022/03/19 04:46:57;;;;;;;57.33;46.03;;;5.20;92.10;;;;;;5118683;28;20713;-43
2022/03/19 04:49:23;;;;;;;53.10;44.00;;;5.20;92.10;;;;;;5119855;28;20566;-43
2022/03/19 04:51:49;;;;;;;52.53;43.20;;;5.10;92.00;;;;;;5118440;28;20184;-43
2022/03/19 04:54:16;;;;;;;52.67;42.83;;;5.10;92.00;;;;;;5120044;28;20210;-43
2022/03/19 04:56:41;;;;;;;62.83;44.83;;;5.10;92.00;;;;;;5119654;28;20815;-43
2022/03/19 04:59:11;;;;;;;51.70;42.47;;;5.10;92.00;;;;;;5119656;28;20467;-43
2022/03/19 05:01:37;;;;;;;55.20;44.83;;;5.10;92.00;;;;;;5117908;28;20179;-43
2022/03/19 05:04:03;;;;;;;53.70;42.80;;;5.00;92.00;;;;;;5120650;28;20418;-45
2022/03/19 05:06:29;;;;;;;58.13;45.50;;;5.00;92.00;;;;;;5120440;28;20414;-43
2022/03/19 05:11:39;;;;;;;50.13;41.63;;;5.00;92.10;;;;;;5120317;28;20186;-44
2022/03/19 05:14:06;;;;;;;52.60;41.37;;;5.00;92.00;;;;;;5121007;28;20435;-44
2022/03/19 05:16:32;;;;;;;55.97;42.10;;;5.00;92.30;;;;;;5119772;28;20464;-44
2022/03/19 05:18:57;;;;;;;51.87;42.20;;;5.00;91.90;;;;;;5120881;28;20501;-42
2022/03/19 05:21:23;;;;;;;54.00;42.70;;;5.00;91.80;;;;;;5120309;28;20764;-43
2022/03/19 05:23:49;;;;;;;55.07;41.80;;;5.00;91.80;;;;;;5121155;28;20168;-44
2022/03/19 05:26:14;;;;;;;58.20;43.73;;;5.00;91.80;;;;;;5120061;28;20446;-44
2022/03/19 05:28:40;;;;;;;52.07;41.90;;;5.00;91.80;;;;;;5120814;28;20183;-44
2022/03/19 05:31:08;;;;;;;51.73;40.60;;;5.00;91.80;;;;;;5120950;28;20176;-44
2022/03/19 05:36:19;;;;;;;54.07;42.20;;;5.00;91.70;;;;;;5120728;28;20890;-45
2022/03/19 05:38:45;;;;;;;50.60;42.60;;;5.00;91.60;;;;;;5119790;28;20522;-45
2022/03/19 05:41:11;;;;;;;56.10;42.50;;;5.00;91.60;;;;;;5120471;28;20172;-45
2022/03/19 05:43:37;;;;;;;49.67;40.50;;;5.00;91.70;;;;;;5120072;28;20177;-45
2022/03/19 05:46:03;;;;;;;54.03;43.27;;;5.00;91.60;;;;;;5119334;28;20428;-46
2022/03/19 05:48:29;;;;;;;49.97;41.27;;;5.00;91.60;;;;;;5118997;28;20524;-45
2022/03/19 05:50:56;;;;;;;52.57;42.53;;;5.00;91.50;;;;;;5121290;28;20513;-46
2022/03/19 05:53:22;;;;;;;49.97;39.57;;;5.00;91.40;;;;;;5117660;28;20238;-44
2022/03/19 05:55:48;;;;;;;51.20;39.83;;;5.00;91.40;;;;;;5117565;28;20441;-45
2022/03/19 05:58:13;;;;;;;47.90;40.17;;;5.10;91.40;;;;;;5118228;28;20500;-44
2022/03/19 06:00:39;;;;;;;50.90;40.37;;;5.10;91.30;;;;;;5119472;28;20187;-45
2022/03/19 06:03:05;;;;;;;46.17;38.27;;;5.10;91.20;;;;;;5119458;28;20184;-46
2022/03/19 06:05:30;;;;;;;47.30;39.40;;;5.20;91.20;;;;;;5118693;28;20219;-45
2022/03/19 06:07:56;;;;;;;53.80;42.23;;;5.20;91.10;;;;;;5116408;28;20608;-44
2022/03/19 06:10:22;;;;;;;53.60;40.63;;;5.30;91.00;;;;;;5116939;28;20565;-44
2022/03/19 06:12:47;;;;;;;52.47;41.23;;;5.40;90.90;;;;;;5114037;28;20263;-45
2022/03/19 06:15:13;;;;;;;48.73;39.30;;;5.50;90.80;;;;;;5117062;28;20509;-44
2022/03/19 06:17:39;;;;;;;49.67;40.90;;;5.60;90.70;;;;;;5115346;28;20684;-44
2022/03/19 06:20:05;;;;;;;47.70;39.97;;;5.70;90.60;;;;;;5116748;28;20188;-45
2022/03/19 06:22:30;;;;;;;58.33;41.57;;;5.80;90.50;;;;;;5116232;28;20597;-45
2022/03/19 06:24:56;;;;;;;49.17;40.83;;;5.90;90.30;;;;;;5116858;28;20449;-45
2022/03/19 06:27:22;;;;;;;52.67;39.40;;;6.00;90.10;;;;;;5117739;28;20182;-44
2022/03/19 06:29:48;;;;;;;50.07;39.80;;;6.10;89.80;;;;;;5117195;28;20180;-45
2022/03/19 06:32:20;;;;;;;49.17;40.93;;;6.30;89.40;;;;;;5118481;28;20469;-45
2022/03/19 06:34:49;;;;;;;49.27;41.10;;;6.40;89.00;;;;;;5117727;28;20776;-45
2022/03/19 06:37:20;;;;;;;46.73;40.33;;;6.50;88.50;;;;;;5105241;28;20722;-45
2022/03/19 06:39:53;;;;;;;50.70;41.13;;;6.70;88.00;;;;;;5098228;28;20430;-45
2022/03/19 06:42:19;;;;;;;48.70;39.30;;;6.90;87.50;;;;;;5113629;28;20422;-45
2022/03/19 06:44:44;;;;;;;48.83;39.60;;;7.10;87.10;;;;;;5117519;28;20443;-45
2022/03/19 06:47:10;;;;;;;45.97;38.87;;;7.30;86.50;;;;;;5119249;28;20516;-45
2022/03/19 06:49:36;;;;;;;50.37;40.70;;;7.50;85.80;;;;;;5117490;28;20175;-45
2022/03/19 06:52:02;;;;;;;46.67;39.60;;;7.70;85.00;;;;;;5118085;28;20207;-45
2022/03/19 06:54:27;;;;;;;47.63;39.20;;;7.80;84.10;;;;;;5118870;28;20176;-45
2022/03/19 06:56:54;;;;;;;42.53;36.30;;;8.00;83.10;;;;;;5116655;28;20246;-45
2022/03/19 06:59:20;;;;;;;45.53;39.47;;;8.20;82.50;;;;;;5117521;28;20455;-45
2022/03/19 07:01:45;;;;;;;47.57;38.60;;;8.40;81.50;;;;;;5117241;28;20426;-45
2022/03/19 07:04:11;;;;;;;44.30;37.40;;;8.70;81.00;;;;;;5117400;28;20839;-45
2022/03/19 07:06:37;;;;;;;45.00;39.20;;;8.90;79.90;;;;;;5118488;28;20202;-45
2022/03/19 07:09:03;;;;;;;44.30;37.30;;;9.20;79.20;;;;;;5120097;28;20203;-45
2022/03/19 07:11:30;;;;;;;41.17;36.53;;;9.50;78.30;;;;;;5122168;28;20180;-45
2022/03/19 07:13:56;;;;;;;44.77;38.17;;;9.70;77.20;;;;;;5119397;28;20431;-45
2022/03/19 07:16:22;;;;;;;40.63;35.87;;;10.00;74.40;;;;;;5102991;28;20707;-45
2022/03/19 07:18:47;;;;;;;44.67;36.73;;;10.30;73.50;;;;;;5100866;28;20610;-46
2022/03/19 07:21:15;;;;;;;40.30;35.97;;;10.50;72.70;;;;;;5107236;28;20460;-46
2022/03/19 07:23:40;;;;;;;41.23;36.77;;;10.70;71.60;;;;;;5119613;28;20183;-45
2022/03/19 07:26:07;;;;;;;41.60;37.07;;;10.90;70.70;;;;;;5120230;27;20429;-45
2022/03/19 07:28:32;;;;;;;39.60;35.33;;;11.20;70.10;;;;;;5118340;28;20426;-45
2022/03/19 07:30:58;;;;;;;45.60;38.60;;;11.40;69.20;;;;;;5119833;28;20180;-45
2022/03/19 07:33:24;;;;;;;43.63;38.90;;;11.60;67.90;;;;;;5118356;28;20467;-45
2022/03/19 07:35:49;;;;;;;41.10;35.43;;;11.90;66.50;;;;;;5119488;28;20660;-45
2022/03/19 07:38:15;;;;;;;40.27;35.97;;;12.00;65.40;;;;;;5100238;28;20605;-45
2022/03/19 07:43:45;;;;;;;41.83;37.33;;;12.40;63.30;;;;;;5055386;28;20182;-45
2022/03/19 07:46:11;;;;;;;38.37;34.27;;;12.60;61.70;;;;;;5057104;28;20415;-46
2022/03/19 07:48:37;;;;;;;41.10;36.80;;;12.80;61.00;;;;;;5076347;28;20441;-45
2022/03/19 07:51:03;;;;;;;39.07;35.17;;;13.00;59.50;;;;;;5102499;28;20410;-46
2022/03/19 07:53:29;;;;;;;37.47;33.13;;;13.30;59.20;;;;;;5100438;28;20488;-45
2022/03/19 07:55:55;;;;;;;36.13;32.23;;;13.50;58.40;;;;;;5098788;28;20187;-45
2022/03/19 07:58:20;;;;;;;38.57;34.53;;;13.80;57.50;;;;;;5097217;28;20218;-46
2022/03/19 08:00:46;;;;;;;38.70;34.53;;;14.00;56.80;;;;;;5101819;28;20441;-45
2022/03/19 08:03:12;;;;;;;37.43;33.60;;;14.30;56.10;;;;;;5100582;28;20750;-45
2022/03/19 08:05:40;;;;;;;35.87;32.23;;;14.50;55.80;;;;;;5099177;28;20181;-45
2022/03/19 08:08:06;;;;;;;34.93;31.33;;;14.80;54.20;;;;;;5098161;28;20423;-45
2022/03/19 08:10:32;;;;;;;35.97;32.17;;;15.00;53.30;;;;;;5105890;28;20457;-45
2022/03/19 08:13:08;;;;;;;36.83;32.80;;;15.20;52.40;;;;;;5118152;28;20526;-46
2022/03/19 08:15:37;;;;;;;35.23;31.77;;;15.40;51.10;;;;;;5118050;28;20639;-44
2022/03/19 08:18:04;;;;;;;33.87;30.30;;;15.70;50.50;;;;;;5117514;28;20700;-46
2022/03/19 08:20:31;;;;;;;36.30;32.50;;;16.00;50.00;;;;;;5117542;28;20844;-45
2022/03/19 08:22:57;;;;;;;34.60;31.20;;;16.20;49.00;;;;;;5118959;28;20813;-45
2022/03/19 08:25:23;;;;;;;34.87;31.27;;;16.50;48.40;;;;;;5097630;28;20460;-46
2022/03/19 08:27:50;;;;;;;33.17;29.77;;;16.70;47.20;;;;;;5098823;28;20521;-46
2022/03/19 08:30:17;;;;;;;31.10;27.97;;;17.00;46.40;;;;;;5097819;28;20431;-46
2022/03/19 08:32:42;;;;;;;31.13;28.13;;;17.20;46.00;;;;;;5097146;28;20431;-46
2022/03/19 08:35:08;;;;;;;31.43;28.43;;;17.50;44.90;;;;;;5095043;28;20571;-46
2022/03/19 08:37:36;;;;;;;31.50;28.30;;;17.80;43.90;;;;;;5096141;28;20712;-46
2022/03/19 08:40:18;;;;;;;31.67;28.60;;;18.10;42.80;;;;;;5094810;28;20183;-45
2022/03/19 08:42:46;;;;;;;30.83;27.27;;;18.30;42.10;;;;;;5094882;28;20407;-47
2022/03/19 08:45:11;;;;;;;29.43;26.57;;;18.60;41.10;;;;;;5096137;28;20451;-47
2022/03/19 08:47:37;;;;;;;28.27;25.77;;;18.90;40.30;;;;;;5097845;28;20860;-46
2022/03/19 08:50:03;;;;;;;32.60;29.40;;;19.20;39.50;;;;;;5096795;28;20776;-46
2022/03/19 08:52:29;;;;;;;30.63;27.53;;;19.60;38.70;;;;;;5097014;28;20177;-47
2022/03/19 08:54:55;;;;;;;30.00;27.00;;;19.90;38.10;;;;;;5096864;28;20436;-47
2022/03/19 08:57:21;;;;;;;30.73;27.93;;;20.10;36.70;;;;;;5098753;28;20197;-46
2022/03/19 08:59:47;;;;;;;30.53;27.63;;;20.40;36.20;;;;;;5099341;28;20821;-46
2022/03/19 09:02:12;;;;;;;29.03;26.17;;;20.80;36.00;;;;;;5096078;28;20172;-46
2022/03/19 09:04:38;;;;;;;29.23;26.33;;;21.10;35.30;;;;;;5097914;28;20437;-46
2022/03/19 09:07:03;;;;;;;28.17;25.43;;;21.50;34.40;;;;;;5096787;28;20180;-47
2022/03/19 09:09:29;;;;;;;29.07;26.20;;;21.70;34.20;;;;;;5098471;28;20187;-47
2022/03/19 09:11:55;;;;;;;28.80;26.00;;;22.30;33.70;;;;;;5095609;28;20188;-47
2022/03/19 09:14:20;;;;;;;29.60;26.47;;;22.50;32.90;;;;;;5096977;28;20239;-46
2022/03/19 09:16:46;;;;;;;25.63;23.33;;;22.90;33.00;;;;;;5095517;28;20243;-47
2022/03/19 09:19:12;;;;;;;27.60;25.17;;;23.30;32.00;;;;;;5096693;28;20225;-47
2022/03/19 09:21:38;;;;;;;26.97;24.47;;;23.70;31.40;;;;;;5095157;28;20423;-46
2022/03/19 09:24:04;;;;;;;29.07;26.40;;;24.10;30.80;;;;;;5094993;28;20177;-47
2022/03/19 09:26:30;;;;;;;26.80;24.20;;;24.50;30.20;;;;;;5094370;28;20252;-47
2022/03/19 09:28:56;;;;;;;28.27;25.57;;;24.80;30.00;;;;;;5094893;28;20541;-47
2022/03/19 09:31:21;;;;;;;30.53;27.53;;;25.00;29.60;;;;;;5095627;28;20199;-47
2022/03/19 09:33:47;;;;;;;28.20;25.53;;;25.40;29.40;;;;;;5096216;28;20419;-48
2022/03/19 09:36:14;;;;;;;25.70;23.50;;;25.60;29.30;;;;;;5097214;28;20224;-47
2022/03/19 09:38:40;;;;;;;27.30;24.87;;;26.10;29.10;;;;;;5097809;28;20464;-47
2022/03/19 09:41:07;;;;;;;25.63;23.43;;;26.40;28.50;;;;;;5096276;28;20707;-47
2022/03/19 09:43:33;;;;;;;27.70;25.07;;;26.70;28.30;;;;;;5099226;28;20420;-47
2022/03/19 09:45:59;;;;;;;27.97;25.57;;;26.90;27.50;;;;;;5097458;28;20600;-47
2022/03/19 09:48:24;;;;;;;27.73;25.10;;;27.10;27.70;;;;;;5095960;28;20502;-47
2022/03/19 09:50:54;;;;;;;26.47;24.07;;;27.40;27.20;;;;;;5094047;28;20185;-47
2022/03/19 09:53:23;;;;;;;26.80;24.40;;;27.60;27.10;;;;;;5094139;28;20178;-45
2022/03/19 09:55:49;;;;;;;21.23;19.40;;;27.70;27.00;;;;;;5113742;28;21459;-48
2022/03/19 09:58:15;;;;;;;23.10;20.90;;;27.80;29.30;;;;;;5111955;28;20486;-46
2022/03/19 10:00:42;;;;;;;22.60;20.50;;;27.90;29.50;;;;;;5110264;28;20395;-44
2022/03/19 10:03:10;;;;;;;21.83;19.83;;;28.00;30.00;;;;;;5112109;28;20713;-45
2022/03/19 10:08:40;;;;;;;22.27;20.33;;;28.30;29.60;;;;;;5110029;28;20424;-45
2022/03/19 10:11:15;;;;;;;21.97;19.87;;;28.40;29.50;;;;;;5114393;28;20412;-48
2022/03/19 10:13:46;;;;;;;24.87;22.67;;;28.60;29.30;;;;;;5113923;28;20428;-47
2022/03/19 10:16:22;;;;;;;23.20;21.20;;;29.00;28.70;;;;;;5115480;28;20420;-48
2022/03/19 10:18:58;;;;;;;24.20;21.90;;;29.20;28.40;;;;;;5113351;28;20429;-48
2022/03/19 10:21:25;;;;;;;23.47;21.50;;;29.30;28.40;;;;;;5115086;28;20420;-48
2022/03/19 10:23:51;;;;;;;24.77;22.57;;;29.60;28.00;;;;;;5113669;28;20400;-49
2022/03/19 10:26:23;;;;;;;20.70;18.90;;;29.90;28.00;;;;;;5111812;28;20699;-48
2022/03/19 10:28:56;;;;;;;20.67;18.93;;;30.20;28.80;;;;;;5105871;28;20269;-45
2022/03/19 10:31:33;;;;;;;21.50;19.60;;;30.60;28.70;;;;;;5114035;28;20733;-48
2022/03/19 10:33:59;;;;;;;23.07;21.17;;;31.00;28.10;;;;;;5094702;28;20424;-48
2022/03/19 10:36:51;;;;;;;21.60;19.67;;;31.50;27.30;;;;;;5095638;28;20439;-48
2022/03/19 10:39:27;;;;;;;23.63;21.40;;;31.80;27.30;;;;;;5092686;28;20455;-47
2022/03/19 10:41:57;;;;;;;23.73;21.33;;;32.20;27.00;;;;;;5099933;28;20422;-43
2022/03/19 10:44:25;;;;;;;22.30;20.10;;;32.70;27.60;;;;;;5110073;28;20793;-44
2022/03/19 10:46:56;;;;;;;20.63;18.60;;;32.10;28.30;;;;;;5124096;28;20857;-54
2022/03/19 10:49:24;;;;;;;19.83;17.97;;;31.40;30.00;;;;;;5121477;28;20395;-49
2022/03/19 10:51:53;;;;;;;18.57;17.03;;;30.40;30.70;;;;;;5114891;28;20439;-48
2022/03/19 10:54:19;;;;;;;20.30;18.60;;;30.00;31.40;;;;;;5103050;28;20403;-52
2022/03/19 10:56:46;;;;;;;21.63;19.40;;;29.60;31.20;;;;;;5103841;28;20435;-50
2022/03/19 10:59:12;;;;;;;21.13;19.10;;;29.20;31.00;;;;;;5102557;28;20585;-44
2022/03/19 11:01:38;;;;;;;22.30;20.40;;;29.00;30.40;;;;;;5109378;28;20403;-47
2022/03/19 11:04:06;;;;;;;21.70;19.80;;;29.10;30.00;;;;;;5107323;28;20180;-47
2022/03/19 11:06:36;;;;;;;21.40;19.40;;;29.10;30.50;;;;;;5105924;28;20409;-47
2022/03/19 11:09:09;;;;;;;19.50;17.93;;;29.20;30.40;;;;;;5100285;28;20636;-46
2022/03/19 11:11:44;;;;;;;20.97;19.10;;;29.20;30.60;;;;;;5103298;28;20810;-46
2022/03/19 11:14:11;;;;;;;20.43;18.83;;;29.40;30.50;;;;;;5102973;28;20424;-46
2022/03/19 11:16:37;;;;;;;21.23;19.63;;;29.60;30.50;;;;;;5105811;28;20421;-46
2022/03/19 11:19:03;;;;;;;22.10;20.00;;;29.80;30.60;;;;;;5113184;28;20415;-45
2022/03/19 11:21:32;;;;;;;20.63;18.97;;;30.00;30.50;;;;;;5122095;27;20388;-48
2022/03/19 11:24:22;;;;;;;19.33;17.67;;;30.20;30.00;;;;;;5117803;27;20397;-47
2022/03/19 11:26:49;;;;;;;20.27;18.50;;;30.20;30.00;;;;;;5117516;28;20205;-47
2022/03/19 11:29:15;;;;;;;20.10;18.27;;;30.70;29.50;;;;;;5119243;27;20395;-47
2022/03/19 11:31:43;;;;;;;20.13;18.53;;;31.10;29.40;;;;;;5120640;27;20479;-47
2022/03/19 11:34:19;;;;;;;20.50;18.80;;;31.30;28.80;;;;;;5116382;28;20559;-46
2022/03/19 11:37:13;;;;;;;20.37;18.70;;;31.50;29.10;;;;;;5120284;27;20482;-49
2022/03/19 11:40:28;;;;;;;20.97;19.30;;;31.20;28.80;;;;;;5104514;27;20414;-46
2022/03/19 11:42:54;;;;;;;20.43;18.73;;;30.90;28.70;;;;;;5118134;27;20417;-45
2022/03/19 11:45:20;;;;;;;19.77;18.00;;;30.30;29.00;;;;;;5119438;27;20481;-39
2022/03/19 11:47:46;;;;;;;17.23;15.53;;;30.40;29.60;;;;;;5117160;28;20431;-39
2022/03/19 11:50:42;;;;;;;18.23;16.57;;;30.50;29.30;;;;;;5120080;27;20415;-39
2022/03/19 11:53:07;;;;;;;18.07;16.53;;;30.20;29.30;;;;;;5116162;27;20208;-39
2022/03/19 11:55:36;;;;;;;16.90;15.50;;;29.70;29.20;;;;;;5117515;28;20832;-39
2022/03/19 11:58:07;;;;;;;17.10;15.80;;;30.00;29.50;;;;;;5119048;28;20263;-41
2022/03/19 12:00:36;;;;;;;17.43;16.10;;;30.70;29.10;;;;;;5120896;28;20735;-39
2022/03/19 12:03:19;;;;;;;17.33;15.60;;;31.40;28.80;;;;;;5118969;28;20426;-39
2022/03/19 12:05:46;;;;;;;16.10;14.90;;;32.00;27.90;;;;;;5118858;28;20407;-39
2022/03/19 12:08:18;;;;;;;16.50;15.07;;;32.90;27.80;;;;;;5117320;28;20869;-38
2022/03/19 12:10:54;;;;;;;15.90;14.50;;;33.70;27.10;;;;;;5119642;28;20377;-39
2022/03/19 12:13:29;;;;;;;13.90;12.80;;;34.60;26.60;;;;;;5117847;28;20405;-40
2022/03/19 12:16:04;;;;;;;16.00;14.57;;;35.40;25.90;;;;;;5119534;28;20440;-40
2022/03/19 12:18:38;;;;;;;15.30;14.10;;;35.60;25.70;;;;;;5117833;28;20390;-38
2022/03/19 12:21:17;;;;;;;14.20;13.10;;;36.00;25.40;;;;;;5119735;28;20705;-40
2022/03/19 12:24:06;;;;;;;16.07;14.60;;;36.30;25.50;;;;;;5117382;28;20439;-39
2022/03/19 12:26:49;;;;;;;14.83;13.57;;;36.60;25.00;;;;;;5105383;28;20882;-39
2022/03/19 12:29:17;;;;;;;14.27;13.07;;;36.80;25.00;;;;;;5107980;28;20450;-37
2022/03/19 12:31:48;;;;;;;17.03;13.47;;;37.00;24.50;;;;;;5109235;28;20486;-38
2022/03/19 12:34:18;;;;;;;12.23;11.23;;;37.10;24.30;;;;;;5106433;27;20458;-38
2022/03/19 12:36:45;;;;;;;12.93;11.93;;;37.20;24.70;;;;;;5105549;28;20480;-40
2022/03/19 12:39:11;;;;;;;12.50;11.40;;;37.50;24.40;;;;;;5105276;28;20720;-40
2022/03/19 12:41:36;;;;;;;11.83;10.90;;;37.70;24.50;;;;;;5109383;28;20411;-37
2022/03/19 12:44:18;;;;;;;14.60;13.40;;;37.40;24.70;;;;;;5100081;28;20437;-39
2022/03/19 12:46:45;;;;;;;11.60;10.60;;;37.60;23.40;;;;;;5095471;28;20204;-37
2022/03/19 12:49:14;;;;;;;12.67;11.57;;;37.60;24.00;;;;;;5096333;28;20426;-38